DW7269 Weather Reports


Display with metric or nautical units.
time (UTC)temp
F
wind
direction
speed
MPH
gust
MPH
rain 1hr
in
rain 24hr
in
rain mn
in
humidity
%
barometer
mb
20190418161552 69 284 1.0 7.0 0.00 0.00 0.00 38 1017.5
20190418160039 68 305 3.0 7.0 0.00 0.00 0.00 39 1017.6
20190418154637 68 295 2.0 6.0 0.00 0.00 0.00 40 1017.7
20190418153015 67 129 0.0 4.0 0.00 0.00 0.00 42 1017.8
20190418151510 66 128 3.0 6.0 0.00 0.00 0.00 43 1017.7
20190418150003 64 164 0.0 5.0 0.00 0.00 0.00 49 1017.8
20190418144656 62 166 2.0 4.0 0.00 0.00 0.00 51 1017.9
20190418143132 62 229 0.0 4.0 0.00 0.00 0.00 51 1017.7
20190418141729 63 59 0.0 2.0 0.00 0.00 0.00 47 1017.7
20190418140210 60 59 0.0 4.0 0.00 0.00 0.00 51 1017.5
20190418134652 56 68 3.0 5.0 0.00 0.00 0.00 58 1017.0
20190418133138 54 72 1.0 5.0 0.00 0.00 0.00 60 1017.0
20190418131623 56 58 1.0 4.0 0.00 0.00 0.00 57 1016.9
20190418130110 56 58 0.0 4.0 0.00 0.00 0.00 57 1016.6
20190418124627 56 58 2.0 5.0 0.00 0.00 0.00 57 1016.6
20190418123109 56 58 0.0 4.0 0.00 0.00 0.00 57 1016.3
20190418121609 55 57 4.0 6.0 0.00 0.00 0.00 59 1016.0
20190418120127 55 70 0.0 3.0 0.00 0.00 0.00 59 1015.8
20190418114547 55 70 0.0 2.0 0.00 0.00 0.00 60 1015.6
20190418113049 54 79 1.0 3.0 0.00 0.00 0.00 61 1015.5
20190418111557 55 80 0.0 3.0 0.00 0.00 0.00 60 1015.6
20190418110105 55 99 2.0 6.0 0.00 0.00 0.00 59 1015.7
20190418104558 56 95 0.0 0.0 0.00 0.00 0.00 57 1015.8
20190418103047 57 95 0.0 1.0 0.00 0.00 0.00 55 1015.6
20190418101545 58 95 1.0 5.0 0.00 0.00 0.00 52 1015.6
20190418100042 59 62 0.0 4.0 0.00 0.00 0.00 52 1015.6
20190418094542 58 62 1.0 5.0 0.00 0.00 0.00 53 1015.7
20190418093039 58 79 0.0 4.0 0.00 0.00 0.00 53 1015.8
20190418091604 58 82 0.0 5.0 0.00 0.00 0.00 53 1016.0
20190418090019 59 81 1.0 6.0 0.00 0.00 0.00 51 1016.0
20190418084512 61 347 0.0 3.0 0.00 0.00 0.00 46 1016.1
20190418083031 62 354 0.0 3.0 0.00 0.00 0.00 46 1016.4
20190418081521 62 350 2.0 5.0 0.00 0.00 0.00 45 1016.6
20190418080015 62 354 1.0 4.0 0.00 0.00 0.00 46 1016.7
20190418074510 62 339 0.0 4.0 0.00 0.00 0.00 46 1016.8
20190418073126 62 345 1.0 4.0 0.00 0.00 0.00 47 1016.8
20190418071655 61 324 2.0 6.0 0.00 0.00 0.00 48 1016.8
20190418070113 59 310 1.0 4.0 0.00 0.00 0.00 52 1016.8
20190418064624 58 309 0.0 3.0 0.00 0.00 0.00 54 1016.7
20190418063240 61 284 1.0 6.0 0.00 0.00 0.00 51 1016.5
20190418061626 62 321 1.0 6.0 0.00 0.00 0.00 47 1016.3
20190418060129 64 344 2.0 8.0 0.00 0.00 0.00 43 1016.1
20190418054637 64 354 2.0 7.0 0.00 0.00 0.00 43 1015.8
20190418053130 63 350 4.0 8.0 0.00 0.00 0.00 44 1015.7
20190418051640 64 359 2.0 9.0 0.00 0.00 0.00 44 1015.8
20190418050146 64 320 2.0 7.0 0.00 0.00 0.00 45 1015.7
20190418044616 64 354 2.0 9.0 0.00 0.01 0.00 43 1015.7
20190418043128 64 4 4.0 9.0 0.00 0.01 0.00 44 1015.5
20190418041608 64 10 4.0 9.0 0.00 0.01 0.00 44 1015.4
20190418040102 64 4 3.0 10.0 0.00 0.01 0.00 44 1015.3
20190418034642 64 8 3.0 5.0 0.00 0.01 0.00 44 1015.2
20190418033147 64 304 2.0 6.0 0.00 0.01 0.00 43 1015.2
20190418031611 63 299 2.0 5.0 0.00 0.01 0.00 45 1015.1
20190418030134 63 315 3.0 5.0 0.00 0.01 0.00 44 1014.8
20190418024641 63 295 2.0 4.0 0.00 0.01 0.00 45 1014.6
20190418023051 64 286 2.0 5.0 0.00 0.01 0.00 43 1014.4
20190418021558 64 289 3.0 6.0 0.00 0.01 0.00 42 1014.1
20190418020128 65 308 4.0 8.0 0.00 0.01 0.00 41 1014.0
20190418014550 66 258 4.0 10.0 0.00 0.01 0.00 39 1013.9
20190418013111 67 297 5.0 10.0 0.00 0.01 0.00 38 1013.7
20190418011604 67 264 4.0 11.0 0.00 0.01 0.00 38 1013.6
20190418010058 68 316 3.0 12.0 0.00 0.01 0.00 38 1013.6
20190418004615 69 261 6.0 13.0 0.00 0.01 0.00 36 1013.4
20190418003046 70 287 4.0 13.0 0.00 0.01 0.00 36 1013.3
20190418001543 69 275 7.0 14.0 0.00 0.01 0.00 36 1013.3
20190418000051 69 266 7.0 14.0 0.00 0.01 0.00 36 1013.3
20190417234601 70 306 5.0 14.0 0.00 0.01 0.00 35 1013.3
20190417233035 69 290 5.0 16.0 0.00 0.01 0.00 36 1013.2
20190417231552 70 308 7.0 16.0 0.00 0.01 0.00 35 1013.3
20190417230053 69 276 7.0 14.0 0.00 0.01 0.00 36 1013.3
20190417224550 69 274 5.0 13.0 0.00 0.01 0.00 38 1013.3
20190417223046 69 300 6.0 13.0 0.00 0.01 0.00 37 1013.3
20190417221558 70 301 7.0 15.0 0.00 0.01 0.00 37 1013.5
20190417220107 70 295 3.0 12.0 0.00 0.01 0.00 37 1013.7
20190417214531 69 303 5.0 12.0 0.00 0.01 0.00 37 1013.7
20190417213036 69 301 6.0 13.0 0.00 0.01 0.00 37 1014.0
20190417211611 68 275 6.0 15.0 0.00 0.01 0.00 38 1014.1
20190417210026 69 324 3.0 13.0 0.00 0.01 0.00 38 1014.2
20190417204519 68 295 5.0 11.0 0.00 0.01 0.00 39 1014.1
20190417203052 66 200 5.0 11.0 0.00 0.01 0.00 42 1014.2
20190417201514 67 265 5.0 13.0 0.00 0.01 0.00 40 1014.1
20190417200012 66 308 3.0 11.0 0.00 0.01 0.00 43 1014.0
20190417194524 66 301 7.0 15.0 0.00 0.01 0.00 44 1014.2
20190417193024 65 300 1.0 9.0 0.00 0.01 0.00 46 1014.2
20190417191516 66 283 2.0 9.0 0.00 0.01 0.00 44 1014.2
20190417190028 65 276 2.0 10.0 0.00 0.01 0.00 45 1014.2
20190417184518 65 354 2.0 9.0 0.00 0.01 0.00 46 1014.2
20190417181647 64 288 1.0 8.0 0.00 0.01 0.00 47 1014.3
20190417180151 64 294 4.0 8.0 0.00 0.01 0.00 48 1014.4
20190417174729 62 295 3.0 8.0 0.00 0.01 0.00 51 1014.6
20190417173205 61 332 3.0 7.0 0.00 0.01 0.00 55 1014.6
20190417171715 61 236 3.0 7.0 0.00 0.01 0.00 55 1014.4
20190417170211 61 221 2.0 7.0 0.00 0.01 0.00 55 1014.3
20190417164618 60 228 2.0 7.0 0.00 0.01 0.00 58 1014.4
20190417163229 60 263 2.0 7.0 0.00 0.01 0.00 60 1014.3